Terminal Aerodrome Forecast
Issued by NWS Spokane, WA

Home | Current Version | Previous Version | Text Only | Print | Product List | Glossary On
Versions: 1 2 3 4 5 6 7 8 9 10 11 12 13 14
000
FTUS46 KOTX 292339
TAFGEG
TAF
KGEG 292339Z 3000/3024 22006KT P6SM -SHRA SCT025 OVC040
     FM300700 21004KT P6SM -RA OVC018
     FM301100 VRB03KT P6SM -RA BKN009 OVC015
     FM301600 02004KT P6SM BKN025 OVC040
     FM301900 VRB03KT P6SM BKN040 BKN070=

USA.gov is the U.S. government's official web portal to all federal, state and local government web resources and services.